createdAt,value
2023-01-29T00:00:09.423Z,100567.16
2023-01-29T00:02:37.083Z,100558.53
2023-01-29T00:05:25.561Z,100574.03
2023-01-29T00:07:51.513Z,100554.19
2023-01-29T00:10:18.068Z,100547.28
2023-01-29T00:12:44.618Z,100544.72
2023-01-29T00:15:10.932Z,100551.63
2023-01-29T00:17:37.256Z,100526.59
2023-01-29T00:20:03.960Z,100525.75
2023-01-29T00:22:30.767Z,100527.47
2023-01-29T00:24:57.113Z,100542.06
2023-01-29T00:27:23.563Z,100536.88
2023-01-29T00:29:49.868Z,100542.91
2023-01-29T00:32:16.548Z,100544.63
2023-01-29T00:34:43.059Z,100525.69
2023-01-29T00:37:09.498Z,100546.38
2023-01-29T00:39:47.130Z,100525.63
2023-01-29T00:42:14.424Z,100524.72
2023-01-29T00:44:40.815Z,100508.31
2023-01-29T00:47:07.377Z,100527.28
2023-01-29T00:49:33.838Z,100520.41
2023-01-29T00:52:00.381Z,100529.00
2023-01-29T00:54:26.724Z,100528.97
2023-01-29T00:56:53.246Z,100506.50
2023-01-29T00:59:19.635Z,100532.38
2023-01-29T01:01:46.217Z,100520.38
2023-01-29T01:04:13.256Z,100522.06
2023-01-29T01:06:41.869Z,100514.28
2023-01-29T01:09:10.180Z,100517.69
2023-01-29T01:11:36.482Z,100512.50
2023-01-29T01:14:03.189Z,100491.81
2023-01-29T01:16:29.688Z,100490.09
2023-01-29T01:18:57.067Z,100486.66
2023-01-29T01:21:23.418Z,100488.34
2023-01-29T01:23:50.210Z,100506.47
2023-01-29T01:26:16.614Z,100493.50
2023-01-29T01:28:43.113Z,100483.16
2023-01-29T01:31:11.223Z,100481.44
2023-01-29T01:33:38.259Z,100498.66
2023-01-29T01:36:06.107Z,100502.06
2023-01-29T01:38:32.575Z,100483.94
2023-01-29T01:40:58.971Z,100497.75
2023-01-29T01:43:25.395Z,100490.78
2023-01-29T01:45:51.884Z,100490.00
2023-01-29T01:48:25.502Z,100494.22
2023-01-29T01:50:58.217Z,100500.31
2023-01-29T01:53:43.865Z,100489.91
2023-01-29T01:56:15.687Z,100512.28
2023-01-29T01:58:47.275Z,100503.63
2023-01-29T02:01:14.167Z,100510.50
2023-01-29T02:03:56.105Z,100513.00
2023-01-29T02:06:22.969Z,100519.84
2023-01-29T02:08:57.890Z,100522.44
2023-01-29T02:11:25.174Z,100520.72
2023-01-29T02:13:53.038Z,100528.44
2023-01-29T02:16:23.289Z,100501.63
2023-01-29T02:18:50.777Z,100547.41
2023-01-29T02:21:45.161Z,100549.94
2023-01-29T02:24:33.022Z,100555.94
2023-01-29T02:27:17.517Z,100539.63
2023-01-29T02:29:59.390Z,100536.19
2023-01-29T02:32:47.468Z,100531.03
2023-01-29T02:35:21.500Z,100542.19
2023-01-29T02:38:27.529Z,100531.84
2023-01-29T02:41:04.779Z,100524.88
2023-01-29T02:43:54.294Z,100529.13
2023-01-29T02:46:25.739Z,100520.47
2023-01-29T02:49:09.316Z,100517.97
2023-01-29T02:51:44.708Z,100508.53
2023-01-29T02:54:21.242Z,100501.63
2023-01-29T02:57:00.406Z,100512.84
2023-01-29T02:59:39.955Z,100505.06
2023-01-29T03:02:15.732Z,100509.38
2023-01-29T03:04:50.757Z,100517.13
2023-01-29T03:07:22.592Z,100501.56
2023-01-29T03:09:53.098Z,100514.44
2023-01-29T03:12:27.972Z,100497.13
2023-01-29T03:14:56.841Z,100497.97
2023-01-29T03:17:30.083Z,100509.22
2023-01-29T03:19:56.449Z,100491.19
2023-01-29T03:22:24.100Z,100506.66
2023-01-29T03:24:57.916Z,100519.69
2023-01-29T03:27:29.723Z,100517.97
2023-01-29T03:29:59.037Z,100532.78
2023-01-29T03:32:28.817Z,100522.50
2023-01-29T03:35:00.967Z,100480.28
2023-01-29T03:37:40.639Z,100517.41
2023-01-29T03:40:08.893Z,100509.66
2023-01-29T03:42:41.985Z,100524.38
2023-01-29T03:45:14.907Z,100520.06
2023-01-29T03:47:59.606Z,100529.59
2023-01-29T03:50:43.613Z,100526.97
2023-01-29T03:53:28.765Z,100508.91
2023-01-29T03:56:13.895Z,100499.41
2023-01-29T03:58:51.055Z,100507.16
2023-01-29T04:01:24.100Z,100498.59
2023-01-29T04:03:58.596Z,100502.06
2023-01-29T04:06:33.524Z,100511.56
2023-01-29T04:09:06.279Z,100514.16
2023-01-29T04:11:36.318Z,100521.91
2023-01-29T04:14:03.365Z,100520.16
2023-01-29T04:16:39.525Z,100515.81
2023-01-29T04:19:06.373Z,100502.00
2023-01-29T04:21:33.848Z,100504.59
2023-01-29T04:24:00.535Z,100497.78
2023-01-29T04:26:51.967Z,100476.19
2023-01-29T04:29:48.831Z,100471.97
2023-01-29T04:32:53.252Z,100493.50
2023-01-29T04:35:31.784Z,100492.63
2023-01-29T04:38:04.605Z,100497.75
2023-01-29T04:40:47.271Z,100489.13
2023-01-29T04:43:30.243Z,100487.44
2023-01-29T04:46:17.231Z,100486.63
2023-01-29T04:49:08.487Z,100490.06
2023-01-29T04:51:59.549Z,100465.00
2023-01-29T04:54:47.122Z,100473.66
2023-01-29T04:57:26.895Z,100477.22
2023-01-29T05:00:19.371Z,100478.16
2023-01-29T05:02:46.945Z,100464.44
2023-01-29T05:05:15.477Z,100468.88
2023-01-29T05:07:43.568Z,100448.13
2023-01-29T05:10:13.061Z,100434.22
2023-01-29T05:12:41.358Z,100454.91
2023-01-29T05:15:19.489Z,100472.13
2023-01-29T05:17:46.056Z,100452.38
2023-01-29T05:20:12.766Z,100444.63
2023-01-29T05:22:41.717Z,100467.94
2023-01-29T05:25:29.757Z,100477.47
2023-01-29T05:27:56.156Z,100457.66
2023-01-29T05:30:22.740Z,100455.03
2023-01-29T05:32:49.152Z,100442.13
2023-01-29T05:35:15.611Z,100456.84
2023-01-29T05:37:42.082Z,100465.44
2023-01-29T05:40:09.589Z,100455.16
2023-01-29T05:42:35.951Z,100432.72
2023-01-29T05:45:02.602Z,100449.13
2023-01-29T05:47:29.004Z,100423.28
2023-01-29T05:49:55.539Z,100439.66
2023-01-29T05:52:21.897Z,100403.44
2023-01-29T05:54:48.413Z,100394.78
2023-01-29T05:57:15.367Z,100426.69
2023-01-29T05:59:41.979Z,100418.94
2023-01-29T06:02:08.414Z,100393.09
2023-01-29T06:04:34.934Z,100426.75
2023-01-29T06:07:01.394Z,100406.00
2023-01-29T06:09:27.778Z,100419.84
2023-01-29T06:11:54.339Z,100397.34
2023-01-29T06:14:20.794Z,100403.31
2023-01-29T06:16:47.200Z,100406.66
2023-01-29T06:19:13.555Z,100421.31
2023-01-29T06:21:40.069Z,100429.91
2023-01-29T06:24:07.103Z,100437.72
2023-01-29T06:26:33.448Z,100430.91
2023-01-29T06:29:00.096Z,100438.69
2023-01-29T06:31:38.266Z,100486.00
2023-01-29T06:34:05.911Z,100490.25
2023-01-29T06:36:32.436Z,100482.53
2023-01-29T06:38:59.031Z,100473.09
2023-01-29T06:41:25.573Z,100467.00
2023-01-29T06:43:52.174Z,100461.97
2023-01-29T06:46:18.620Z,100462.81
2023-01-29T06:48:45.040Z,100438.69
2023-01-29T06:51:11.837Z,100467.94
2023-01-29T06:53:39.824Z,100455.03
2023-01-29T06:56:07.517Z,100499.81
2023-01-29T06:58:36.951Z,100506.63
2023-01-29T07:01:12.636Z,100498.97
2023-01-29T07:03:42.266Z,100490.38
2023-01-29T07:06:09.467Z,100489.53
2023-01-29T07:08:37.428Z,100474.78
2023-01-29T07:11:04.308Z,100490.41
2023-01-29T07:13:30.938Z,100490.41
2023-01-29T07:16:01.808Z,100517.94
2023-01-29T07:18:28.902Z,100528.13
2023-01-29T07:20:56.330Z,100524.59
2023-01-29T07:23:24.173Z,100534.88
2023-01-29T07:25:51.118Z,100500.41
2023-01-29T07:28:19.153Z,100504.94
2023-01-29T07:30:45.595Z,100523.91
2023-01-29T07:33:12.018Z,100516.94
2023-01-29T07:35:40.408Z,100527.25
2023-01-29T07:38:07.817Z,100529.81
2023-01-29T07:40:34.381Z,100548.00
2023-01-29T07:43:02.435Z,100539.34
2023-01-29T07:45:29.901Z,100540.34
2023-01-29T07:47:56.899Z,100527.53
2023-01-29T07:50:24.861Z,100522.38
2023-01-29T07:52:51.868Z,100510.34
2023-01-29T07:55:18.444Z,100472.41
2023-01-29T07:57:45.043Z,100467.25
2023-01-29T08:00:12.786Z,100482.75
2023-01-29T08:02:39.888Z,100474.16
2023-01-29T08:05:06.692Z,100491.41
2023-01-29T08:07:33.165Z,100485.38
2023-01-29T08:09:59.551Z,100497.41
2023-01-29T08:12:25.991Z,100488.81
2023-01-29T08:14:52.669Z,100486.22
2023-01-29T08:17:19.232Z,100489.66
2023-01-29T08:19:45.650Z,100490.53
2023-01-29T08:22:11.996Z,100481.91
2023-01-29T08:24:53.302Z,100462.09
2023-01-29T08:27:20.717Z,100486.22
2023-01-29T08:29:47.367Z,100488.78
2023-01-29T08:32:13.697Z,100482.78
2023-01-29T08:34:40.291Z,100487.06
2023-01-29T08:37:06.613Z,100503.47
2023-01-29T08:39:34.503Z,100500.03
2023-01-29T08:42:01.159Z,100510.38
2023-01-29T08:44:27.726Z,100529.31
2023-01-29T08:46:54.074Z,100537.09
2023-01-29T08:49:20.759Z,100528.47
2023-01-29T08:51:47.210Z,100518.09
2023-01-29T08:54:13.617Z,100515.53
2023-01-29T08:56:40.057Z,100518.09
2023-01-29T08:59:06.418Z,100514.56
2023-01-29T09:01:32.798Z,100523.28
2023-01-29T09:03:59.559Z,100508.63
2023-01-29T09:06:25.885Z,100523.31
2023-01-29T09:08:52.735Z,100511.22
2023-01-29T09:11:19.062Z,100523.25
2023-01-29T09:13:45.493Z,100522.38
2023-01-29T09:16:11.819Z,100507.72
2023-01-29T09:18:38.304Z,100484.47
2023-01-29T09:21:05.010Z,100488.81
2023-01-29T09:23:32.148Z,100488.78
2023-01-29T09:25:58.576Z,100480.94
2023-01-29T09:28:25.021Z,100486.09
2023-01-29T09:30:51.582Z,100467.16
2023-01-29T09:33:18.098Z,100447.28
2023-01-29T09:35:44.896Z,100466.38
2023-01-29T09:38:11.697Z,100468.06
2023-01-29T09:40:47.105Z,100456.59
2023-01-29T09:43:18.575Z,100434.28
2023-01-29T09:46:05.663Z,100453.19
2023-01-29T09:48:35.320Z,100448.00
2023-01-29T09:51:06.650Z,100454.13
2023-01-29T09:53:39.160Z,100461.00
2023-01-29T09:56:14.803Z,100469.56
2023-01-29T09:58:43.842Z,100468.75
2023-01-29T10:01:32.609Z,100458.28
2023-01-29T10:04:08.359Z,100457.44
2023-01-29T10:07:10.710Z,100456.44
2023-01-29T10:09:47.993Z,100458.72
2023-01-29T10:12:33.195Z,100447.72
2023-01-29T10:15:23.323Z,100438.19
2023-01-29T10:18:12.775Z,100429.56
2023-01-29T10:21:13.277Z,100432.31
2023-01-29T10:23:47.770Z,100412.50
2023-01-29T10:26:14.268Z,100414.78
2023-01-29T10:28:43.896Z,100423.41
2023-01-29T10:31:17.092Z,100414.25
2023-01-29T10:34:01.455Z,100413.22
2023-01-29T10:36:40.404Z,100425.16
2023-01-29T10:39:16.082Z,100410.69
2023-01-29T10:42:04.278Z,100413.38
2023-01-29T10:44:59.859Z,100407.44
2023-01-29T10:48:27.965Z,100392.50
2023-01-29T10:51:28.375Z,100381.44
2023-01-29T10:54:16.703Z,100370.13
2023-01-29T10:57:07.958Z,100364.94
2023-01-29T11:00:12.102Z,100358.16
2023-01-29T11:02:44.934Z,100350.41
2023-01-29T11:05:42.005Z,100347.53
2023-01-29T11:08:13.537Z,100340.50
2023-01-29T11:11:07.483Z,100342.22
2023-01-29T11:13:40.714Z,100317.84
2023-01-29T11:16:08.855Z,100320.47
2023-01-29T11:18:59.667Z,100327.22
2023-01-29T11:21:28.760Z,100330.50
2023-01-29T11:24:13.540Z,100325.63
2023-01-29T11:26:42.374Z,100327.34
2023-01-29T11:29:48.486Z,100316.63
2023-01-29T11:32:25.938Z,100308.25
2023-01-29T11:35:02.254Z,100310.22
2023-01-29T11:37:38.089Z,100300.88
2023-01-29T11:40:19.755Z,100307.03
2023-01-29T11:42:47.177Z,100315.69
2023-01-29T11:45:29.808Z,100302.81
2023-01-29T11:47:57.042Z,100291.50
2023-01-29T11:50:26.324Z,100282.66
2023-01-29T11:52:52.946Z,100258.00
2023-01-29T11:55:23.231Z,100258.19
2023-01-29T11:57:53.339Z,100250.66
2023-01-29T12:00:24.182Z,100240.59
2023-01-29T12:03:24.865Z,100241.53
2023-01-29T12:06:28.266Z,100251.34
2023-01-29T12:08:56.857Z,100240.78
2023-01-29T12:11:34.415Z,100256.03
2023-01-29T12:14:04.006Z,100235.91
2023-01-29T12:16:39.614Z,100234.75
2023-01-29T12:19:11.676Z,100248.84
2023-01-29T12:21:47.004Z,100239.78
2023-01-29T12:24:29.530Z,100213.44
2023-01-29T12:27:06.051Z,100229.25
2023-01-29T12:29:52.438Z,100215.63
2023-01-29T12:32:34.651Z,100222.56
2023-01-29T12:35:10.928Z,100211.44
2023-01-29T12:37:45.433Z,100217.41
2023-01-29T12:40:17.525Z,100189.91
2023-01-29T12:42:55.363Z,100225.22
2023-01-29T12:45:24.931Z,100221.97
2023-01-29T12:48:05.350Z,100206.97
2023-01-29T12:50:37.461Z,100211.06
2023-01-29T12:53:19.203Z,100216.53
2023-01-29T12:55:50.402Z,100207.13
2023-01-29T12:58:29.042Z,100190.53
2023-01-29T13:01:01.195Z,100196.84
2023-01-29T13:03:33.508Z,100191.53
2023-01-29T13:06:05.885Z,100174.41
2023-01-29T13:08:39.635Z,100169.78
2023-01-29T13:11:39.511Z,100173.81
2023-01-29T13:14:19.470Z,100152.81
2023-01-29T13:16:50.720Z,100150.72
2023-01-29T13:19:25.140Z,100137.16
2023-01-29T13:21:52.571Z,100122.44
2023-01-29T13:24:23.470Z,100124.28
2023-01-29T13:26:50.537Z,100147.53
2023-01-29T13:29:25.505Z,100142.00
2023-01-29T13:32:04.571Z,100124.31
2023-01-29T13:34:45.511Z,100122.28
2023-01-29T13:37:22.045Z,100141.25
2023-01-29T13:39:51.604Z,100118.13
2023-01-29T13:42:25.861Z,100126.06
2023-01-29T13:44:55.595Z,100105.66
2023-01-29T13:47:34.344Z,100105.19
2023-01-29T13:50:07.878Z,100088.06
2023-01-29T13:52:44.136Z,100107.38
2023-01-29T13:55:13.832Z,100101.75
2023-01-29T13:57:45.945Z,100096.06
2023-01-29T14:00:21.915Z,100080.56
2023-01-29T14:03:08.280Z,100079.78
2023-01-29T14:05:56.744Z,100100.03
2023-01-29T14:08:35.311Z,100092.13
2023-01-29T14:11:35.110Z,100095.75
2023-01-29T14:14:01.729Z,100086.09
2023-01-29T14:16:35.543Z,100093.28
2023-01-29T14:19:05.135Z,100082.66
2023-01-29T14:21:34.144Z,100082.59
2023-01-29T14:24:18.519Z,100076.09
2023-01-29T14:26:47.210Z,100089.44
2023-01-29T14:29:16.493Z,100094.47
2023-01-29T14:32:08.001Z,100098.28
2023-01-29T14:35:20.636Z,100097.88
2023-01-29T14:37:50.893Z,100108.94
2023-01-29T14:40:20.166Z,100103.88
2023-01-29T14:43:04.052Z,100101.91
2023-01-29T14:45:35.594Z,100099.72
2023-01-29T14:48:11.176Z,100104.75
2023-01-29T14:50:37.635Z,100101.03
2023-01-29T14:53:15.525Z,100097.31
2023-01-29T14:55:48.329Z,100113.06
2023-01-29T14:58:23.791Z,100096.69
2023-01-29T15:00:53.946Z,100090.19
2023-01-29T15:03:32.286Z,100083.16
2023-01-29T15:05:59.915Z,100080.59
2023-01-29T15:08:29.121Z,100073.94
2023-01-29T15:11:02.961Z,100068.09
2023-01-29T15:13:47.527Z,100084.31
2023-01-29T15:16:25.642Z,100071.03
2023-01-29T15:18:58.357Z,100063.56
2023-01-29T15:21:24.760Z,100075.44
2023-01-29T15:24:05.053Z,100092.06
2023-01-29T15:26:31.824Z,100079.91
2023-01-29T15:29:05.014Z,100093.81
2023-01-29T15:31:32.425Z,100072.69
2023-01-29T15:34:05.316Z,100071.59
2023-01-29T15:36:32.186Z,100088.63
2023-01-29T15:39:19.827Z,100084.22
2023-01-29T15:41:46.700Z,100084.44
2023-01-29T15:44:15.555Z,100060.78
2023-01-29T15:46:45.792Z,100075.41
2023-01-29T15:49:20.975Z,100075.06
2023-01-29T15:51:48.877Z,100073.56
2023-01-29T15:54:17.248Z,100073.91
2023-01-29T15:56:49.985Z,100088.72
2023-01-29T15:59:20.042Z,100093.88
2023-01-29T16:01:46.602Z,100084.34
2023-01-29T16:04:18.676Z,100082.19
2023-01-29T16:06:45.980Z,100077.28
2023-01-29T16:09:19.715Z,100087.22
2023-01-29T16:11:48.358Z,100083.94
2023-01-29T16:14:17.718Z,100088.72
2023-01-29T16:16:44.307Z,100064.78
2023-01-29T16:19:30.177Z,100090.09
2023-01-29T16:21:59.294Z,100085.75
2023-01-29T16:24:26.098Z,100075.44
2023-01-29T16:26:59.284Z,100079.19
2023-01-29T16:29:31.916Z,100067.00
2023-01-29T16:32:00.362Z,100074.22
2023-01-29T16:34:30.613Z,100088.84
2023-01-29T16:36:57.562Z,100075.25
2023-01-29T16:39:30.599Z,100079.81
2023-01-29T16:42:11.935Z,100093.56
2023-01-29T16:44:40.528Z,100095.59
2023-01-29T16:47:26.920Z,100082.69
2023-01-29T16:49:58.931Z,100097.72
2023-01-29T16:52:32.003Z,100104.34
2023-01-29T16:55:01.301Z,100099.22
2023-01-29T16:57:32.498Z,100105.19
2023-01-29T17:00:04.743Z,100077.06
2023-01-29T17:02:36.942Z,100045.34
2023-01-29T17:05:08.302Z,100101.16
2023-01-29T17:07:37.073Z,100079.66
2023-01-29T17:10:06.700Z,100050.38
2023-01-29T17:12:33.877Z,100082.78
2023-01-29T17:15:04.097Z,100086.00
2023-01-29T17:17:35.178Z,100054.16
2023-01-29T17:20:14.100Z,100092.41
2023-01-29T17:22:40.856Z,100087.31
2023-01-29T17:25:07.624Z,100036.31
2023-01-29T17:27:34.059Z,100055.06
2023-01-29T17:30:00.504Z,100074.03
2023-01-29T17:32:44.207Z,100080.50
2023-01-29T17:35:13.864Z,100080.41
2023-01-29T17:37:40.683Z,100079.69
2023-01-29T17:40:18.762Z,100063.56
2023-01-29T17:42:45.154Z,100056.06
2023-01-29T17:45:11.732Z,100068.66
2023-01-29T17:47:38.077Z,100053.13
2023-01-29T17:50:21.337Z,100044.94
2023-01-29T17:52:48.035Z,100050.16
2023-01-29T17:55:14.797Z,100048.50
2023-01-29T17:57:41.455Z,100047.16
2023-01-29T18:00:16.801Z,100042.81
2023-01-29T18:02:43.598Z,100054.03
2023-01-29T18:05:10.896Z,100032.84
2023-01-29T18:07:42.149Z,100017.44
2023-01-29T18:10:16.051Z,100005.22
2023-01-29T18:12:42.458Z,100017.53
2023-01-29T18:15:10.175Z,100020.97
2023-01-29T18:17:37.091Z,100023.25
2023-01-29T18:20:04.258Z,100039.53
2023-01-29T18:22:30.552Z,100031.00
2023-01-29T18:24:56.885Z,100026.94
2023-01-29T18:27:23.675Z,100020.59
2023-01-29T18:29:50.029Z,99990.59
2023-01-29T18:32:16.615Z,99989.03
2023-01-29T18:34:43.037Z,99986.13
2023-01-29T18:37:12.073Z,99979.56
2023-01-29T18:39:39.223Z,99987.16
2023-01-29T18:42:05.585Z,99972.00
2023-01-29T18:44:32.029Z,99968.03
2023-01-29T18:46:58.489Z,99988.88
2023-01-29T18:49:24.795Z,99977.63
2023-01-29T18:51:51.211Z,99969.97
2023-01-29T18:54:17.533Z,99971.88
2023-01-29T18:57:13.204Z,99989.88
2023-01-29T18:59:30.271Z,99957.13
2023-01-29T19:01:56.891Z,99942.34
2023-01-29T19:04:23.229Z,99976.53
2023-01-29T19:06:49.579Z,99963.16
2023-01-29T19:09:15.983Z,99955.75
2023-01-29T19:11:42.315Z,99967.75
2023-01-29T19:14:08.738Z,99950.84
2023-01-29T19:16:35.171Z,99949.63
2023-01-29T19:19:01.606Z,99962.34
2023-01-29T19:21:28.022Z,99956.72
2023-01-29T19:23:54.488Z,99936.38
2023-01-29T19:26:20.895Z,99977.34
2023-01-29T19:28:47.426Z,99959.78
2023-01-29T19:31:14.018Z,99941.34
2023-01-29T19:33:40.714Z,99952.16
2023-01-29T19:36:07.663Z,99935.75
2023-01-29T19:38:34.144Z,99918.66
2023-01-29T19:41:00.610Z,99932.25
2023-01-29T19:43:29.596Z,99929.84
2023-01-29T19:46:00.653Z,99946.00
2023-01-29T19:48:27.638Z,99949.94
2023-01-29T19:50:59.161Z,99946.34
2023-01-29T19:53:28.158Z,99951.81
2023-01-29T19:55:59.710Z,99963.09
2023-01-29T19:58:26.758Z,99944.97
2023-01-29T20:01:00.829Z,99942.75
2023-01-29T20:03:28.645Z,99946.91
2023-01-29T20:05:56.436Z,99943.75
2023-01-29T20:08:23.099Z,99952.25
2023-01-29T20:10:50.008Z,99937.03
2023-01-29T20:13:16.639Z,99946.91
2023-01-29T20:15:47.312Z,99936.13
2023-01-29T20:18:14.263Z,99928.69
2023-01-29T20:20:42.897Z,99939.63
2023-01-29T20:23:11.521Z,99929.84
2023-01-29T20:25:38.133Z,99921.97
2023-01-29T20:28:10.783Z,99882.97
2023-01-29T20:30:38.097Z,99896.50
2023-01-29T20:33:06.801Z,99886.66
2023-01-29T20:35:34.908Z,99859.44
2023-01-29T20:38:02.242Z,99863.34
2023-01-29T20:40:29.086Z,99865.47
2023-01-29T20:42:55.465Z,99856.72
2023-01-29T20:45:22.422Z,99868.47
2023-01-29T20:47:49.933Z,99862.53
2023-01-29T20:50:17.421Z,99868.56
2023-01-29T20:52:44.306Z,99865.56
2023-01-29T20:55:12.093Z,99849.84
2023-01-29T20:57:39.280Z,99826.53
2023-01-29T21:00:07.775Z,99815.53
2023-01-29T21:02:34.843Z,99815.50
2023-01-29T21:05:01.331Z,99799.94
2023-01-29T21:07:27.661Z,99769.13
2023-01-29T21:09:54.085Z,99768.13
2023-01-29T21:12:20.410Z,99797.00
2023-01-29T21:14:46.903Z,99750.06
2023-01-29T21:17:13.470Z,99788.53
2023-01-29T21:19:39.914Z,99759.34
2023-01-29T21:22:06.243Z,99738.75
2023-01-29T21:24:32.652Z,99755.13
2023-01-29T21:26:59.161Z,99746.34
2023-01-29T21:29:25.635Z,99725.69
2023-01-29T21:31:52.036Z,99731.28
2023-01-29T21:34:18.598Z,99718.69
2023-01-29T21:36:45.046Z,99727.81
2023-01-29T21:39:11.441Z,99719.81
2023-01-29T21:41:38.316Z,99721.25
2023-01-29T21:44:04.777Z,99712.13
2023-01-29T21:46:31.264Z,99680.16
2023-01-29T21:48:57.610Z,99671.72
2023-01-29T21:51:24.298Z,99678.94
2023-01-29T21:53:50.868Z,99672.22
2023-01-29T21:56:17.358Z,99664.41
2023-01-29T21:58:44.042Z,99659.72
2023-01-29T22:01:35.162Z,99678.81
2023-01-29T22:03:56.848Z,99678.81
2023-01-29T22:06:23.438Z,99664.50
2023-01-29T22:08:50.600Z,99640.00
2023-01-29T22:11:17.231Z,99655.16
2023-01-29T22:13:43.640Z,99659.28
2023-01-29T22:16:10.099Z,99656.22
2023-01-29T22:18:36.668Z,99648.72
2023-01-29T22:21:03.200Z,99654.84
2023-01-29T22:23:30.998Z,99673.81
2023-01-29T22:26:07.371Z,99653.06
2023-01-29T22:28:33.786Z,99646.28
2023-01-29T22:31:05.184Z,99663.25
2023-01-29T22:33:31.968Z,99652.50
2023-01-29T22:35:58.365Z,99640.31
2023-01-29T22:38:24.952Z,99645.34
2023-01-29T22:40:52.311Z,99630.66
2023-01-29T22:43:19.070Z,99641.34
2023-01-29T22:45:46.005Z,99635.31
2023-01-29T22:48:13.146Z,99648.66
2023-01-29T22:50:40.655Z,99634.03
2023-01-29T22:53:07.616Z,99626.22
2023-01-29T22:55:34.311Z,99630.00
2023-01-29T22:58:00.648Z,99631.91
2023-01-29T23:00:27.351Z,99594.94
2023-01-29T23:02:53.742Z,99593.56
2023-01-29T23:05:20.144Z,99603.88
2023-01-29T23:07:46.546Z,99623.41
2023-01-29T23:10:14.862Z,99648.63
2023-01-29T23:12:42.037Z,99645.56
2023-01-29T23:15:08.714Z,99653.25
2023-01-29T23:17:35.121Z,99643.13
2023-01-29T23:20:01.476Z,99625.38
2023-01-29T23:22:28.119Z,99618.22
2023-01-29T23:24:54.454Z,99587.66
2023-01-29T23:27:20.830Z,99613.84
2023-01-29T23:29:48.689Z,99618.63
2023-01-29T23:32:18.258Z,99622.78
2023-01-29T23:34:44.733Z,99606.06
2023-01-29T23:37:11.259Z,99616.47
2023-01-29T23:39:37.891Z,99594.66
2023-01-29T23:42:04.870Z,99589.53
2023-01-29T23:44:31.580Z,99578.41
2023-01-29T23:46:57.974Z,99569.28
2023-01-29T23:49:24.404Z,99565.56
2023-01-29T23:51:50.994Z,99568.84
2023-01-29T23:54:18.513Z,99589.59
2023-01-29T23:56:45.173Z,99582.91
2023-01-29T23:59:12.819Z,99574.25
